sensor_id;sensor_type;location;lat;lon;timestamp;P1;durP1;ratioP1;P2;durP2;ratioP2
34876;SDS011;21086;44.780;17.194;2024-03-08T00:00:10;5.85;;;3.38;;
34876;SDS011;21086;44.780;17.194;2024-03-08T00:02:41;7.05;;;3.92;;
34876;SDS011;21086;44.780;17.194;2024-03-08T00:05:09;8.13;;;4.70;;
34876;SDS011;21086;44.780;17.194;2024-03-08T00:07:36;5.38;;;3.45;;
34876;SDS011;21086;44.780;17.194;2024-03-08T00:10:04;5.70;;;3.90;;
34876;SDS011;21086;44.780;17.194;2024-03-08T00:12:33;5.32;;;3.80;;
34876;SDS011;21086;44.780;17.194;2024-03-08T00:15:00;6.75;;;3.55;;
34876;SDS011;21086;44.780;17.194;2024-03-08T00:17:28;4.43;;;2.97;;
34876;SDS011;21086;44.780;17.194;2024-03-08T00:19:55;6.15;;;3.70;;
34876;SDS011;21086;44.780;17.194;2024-03-08T00:22:22;5.25;;;3.50;;
34876;SDS011;21086;44.780;17.194;2024-03-08T00:24:49;6.57;;;3.70;;
34876;SDS011;21086;44.780;17.194;2024-03-08T00:27:17;5.40;;;3.50;;
34876;SDS011;21086;44.780;17.194;2024-03-08T00:29:47;5.68;;;3.78;;
34876;SDS011;21086;44.780;17.194;2024-03-08T00:32:15;5.30;;;3.28;;
34876;SDS011;21086;44.780;17.194;2024-03-08T00:34:43;5.93;;;4.00;;
34876;SDS011;21086;44.780;17.194;2024-03-08T00:37:10;7.00;;;3.90;;
34876;SDS011;21086;44.780;17.194;2024-03-08T00:39:37;6.90;;;4.30;;
34876;SDS011;21086;44.780;17.194;2024-03-08T00:42:04;5.18;;;3.85;;
34876;SDS011;21086;44.780;17.194;2024-03-08T00:44:31;5.75;;;3.72;;
34876;SDS011;21086;44.780;17.194;2024-03-08T00:46:58;5.80;;;3.90;;
34876;SDS011;21086;44.780;17.194;2024-03-08T00:49:25;5.97;;;3.90;;
34876;SDS011;21086;44.780;17.194;2024-03-08T00:51:52;6.05;;;3.63;;
34876;SDS011;21086;44.780;17.194;2024-03-08T00:54:19;6.45;;;3.90;;
34876;SDS011;21086;44.780;17.194;2024-03-08T00:56:46;5.70;;;3.50;;
34876;SDS011;21086;44.780;17.194;2024-03-08T00:59:14;5.97;;;3.50;;
34876;SDS011;21086;44.780;17.194;2024-03-08T01:01:41;7.20;;;4.00;;
34876;SDS011;21086;44.780;17.194;2024-03-08T01:04:08;8.05;;;4.80;;
34876;SDS011;21086;44.780;17.194;2024-03-08T01:06:35;6.70;;;4.28;;
34876;SDS011;21086;44.780;17.194;2024-03-08T01:09:02;5.72;;;3.47;;
34876;SDS011;21086;44.780;17.194;2024-03-08T01:11:29;5.78;;;3.40;;
34876;SDS011;21086;44.780;17.194;2024-03-08T01:13:56;6.38;;;3.70;;
34876;SDS011;21086;44.780;17.194;2024-03-08T01:16:23;7.13;;;3.80;;
34876;SDS011;21086;44.780;17.194;2024-03-08T01:18:50;7.07;;;4.22;;
34876;SDS011;21086;44.780;17.194;2024-03-08T01:21:18;8.32;;;4.95;;
34876;SDS011;21086;44.780;17.194;2024-03-08T01:23:45;6.68;;;4.47;;
34876;SDS011;21086;44.780;17.194;2024-03-08T01:26:12;8.10;;;4.53;;
34876;SDS011;21086;44.780;17.194;2024-03-08T01:28:41;9.00;;;4.63;;
34876;SDS011;21086;44.780;17.194;2024-03-08T01:31:08;7.47;;;4.78;;
34876;SDS011;21086;44.780;17.194;2024-03-08T01:33:35;11.43;;;6.72;;
34876;SDS011;21086;44.780;17.194;2024-03-08T01:36:02;18.33;;;8.90;;
34876;SDS011;21086;44.780;17.194;2024-03-08T01:38:29;14.52;;;8.40;;
34876;SDS011;21086;44.780;17.194;2024-03-08T01:40:56;13.07;;;7.97;;
34876;SDS011;21086;44.780;17.194;2024-03-08T01:43:27;16.10;;;8.80;;
34876;SDS011;21086;44.780;17.194;2024-03-08T01:45:55;15.65;;;9.10;;
34876;SDS011;21086;44.780;17.194;2024-03-08T01:48:28;13.95;;;8.60;;
34876;SDS011;21086;44.780;17.194;2024-03-08T01:50:57;15.95;;;8.85;;
34876;SDS011;21086;44.780;17.194;2024-03-08T01:53:24;14.13;;;8.40;;
34876;SDS011;21086;44.780;17.194;2024-03-08T01:55:56;16.63;;;9.20;;
34876;SDS011;21086;44.780;17.194;2024-03-08T01:58:25;16.15;;;9.15;;
34876;SDS011;21086;44.780;17.194;2024-03-08T02:00:56;14.35;;;9.25;;
34876;SDS011;21086;44.780;17.194;2024-03-08T02:03:26;14.40;;;9.35;;
34876;SDS011;21086;44.780;17.194;2024-03-08T02:05:54;17.17;;;9.07;;
34876;SDS011;21086;44.780;17.194;2024-03-08T02:08:21;16.85;;;10.35;;
34876;SDS011;21086;44.780;17.194;2024-03-08T02:10:49;17.30;;;10.43;;
34876;SDS011;21086;44.780;17.194;2024-03-08T02:13:17;19.83;;;10.63;;
34876;SDS011;21086;44.780;17.194;2024-03-08T02:15:58;17.88;;;10.10;;
34876;SDS011;21086;44.780;17.194;2024-03-08T02:18:26;20.30;;;11.15;;
34876;SDS011;21086;44.780;17.194;2024-03-08T02:20:55;16.67;;;10.40;;
34876;SDS011;21086;44.780;17.194;2024-03-08T02:23:23;20.48;;;10.90;;
34876;SDS011;21086;44.780;17.194;2024-03-08T02:25:54;14.68;;;9.27;;
34876;SDS011;21086;44.780;17.194;2024-03-08T02:28:23;14.82;;;9.27;;
34876;SDS011;21086;44.780;17.194;2024-03-08T02:30:55;17.02;;;9.10;;
34876;SDS011;21086;44.780;17.194;2024-03-08T02:33:24;17.38;;;9.75;;
34876;SDS011;21086;44.780;17.194;2024-03-08T02:35:52;17.13;;;9.57;;
34876;SDS011;21086;44.780;17.194;2024-03-08T02:38:19;13.75;;;8.20;;
34876;SDS011;21086;44.780;17.194;2024-03-08T02:40:51;15.13;;;8.80;;
34876;SDS011;21086;44.780;17.194;2024-03-08T02:43:19;12.10;;;8.10;;
34876;SDS011;21086;44.780;17.194;2024-03-08T02:45:51;13.63;;;8.73;;
34876;SDS011;21086;44.780;17.194;2024-03-08T02:48:19;13.55;;;9.18;;
34876;SDS011;21086;44.780;17.194;2024-03-08T02:50:48;15.07;;;9.35;;
34876;SDS011;21086;44.780;17.194;2024-03-08T02:53:18;15.10;;;9.43;;
34876;SDS011;21086;44.780;17.194;2024-03-08T02:55:48;14.75;;;9.20;;
34876;SDS011;21086;44.780;17.194;2024-03-08T02:58:16;13.77;;;8.95;;
34876;SDS011;21086;44.780;17.194;2024-03-08T03:00:43;14.02;;;9.40;;
34876;SDS011;21086;44.780;17.194;2024-03-08T03:03:11;13.82;;;9.63;;
34876;SDS011;21086;44.780;17.194;2024-03-08T03:05:38;17.02;;;10.48;;
34876;SDS011;21086;44.780;17.194;2024-03-08T03:08:13;13.27;;;9.35;;
34876;SDS011;21086;44.780;17.194;2024-03-08T03:10:41;16.55;;;10.27;;
34876;SDS011;21086;44.780;17.194;2024-03-08T03:13:09;14.20;;;10.05;;
34876;SDS011;21086;44.780;17.194;2024-03-08T03:15:36;15.07;;;9.55;;
34876;SDS011;21086;44.780;17.194;2024-03-08T03:18:03;14.25;;;10.25;;
34876;SDS011;21086;44.780;17.194;2024-03-08T03:20:35;14.98;;;9.07;;
34876;SDS011;21086;44.780;17.194;2024-03-08T03:23:08;14.73;;;9.48;;
34876;SDS011;21086;44.780;17.194;2024-03-08T03:25:36;15.25;;;10.70;;
34876;SDS011;21086;44.780;17.194;2024-03-08T03:28:05;15.45;;;9.80;;
34876;SDS011;21086;44.780;17.194;2024-03-08T03:30:34;15.95;;;9.55;;
34876;SDS011;21086;44.780;17.194;2024-03-08T03:33:01;18.30;;;10.05;;
34876;SDS011;21086;44.780;17.194;2024-03-08T03:35:34;16.20;;;10.55;;
34876;SDS011;21086;44.780;17.194;2024-03-08T03:38:03;14.35;;;9.68;;
34876;SDS011;21086;44.780;17.194;2024-03-08T03:40:36;12.80;;;8.52;;
34876;SDS011;21086;44.780;17.194;2024-03-08T03:43:04;16.05;;;9.63;;
34876;SDS011;21086;44.780;17.194;2024-03-08T03:45:31;17.17;;;9.98;;
34876;SDS011;21086;44.780;17.194;2024-03-08T03:48:04;15.35;;;9.18;;
34876;SDS011;21086;44.780;17.194;2024-03-08T03:50:34;14.38;;;9.18;;
34876;SDS011;21086;44.780;17.194;2024-03-08T03:53:02;16.70;;;9.82;;
34876;SDS011;21086;44.780;17.194;2024-03-08T03:55:30;22.35;;;10.80;;
34876;SDS011;21086;44.780;17.194;2024-03-08T03:57:57;27.05;;;13.40;;
34876;SDS011;21086;44.780;17.194;2024-03-08T04:00:25;59.17;;;23.48;;
34876;SDS011;21086;44.780;17.194;2024-03-08T04:02:54;64.97;;;26.25;;
34876;SDS011;21086;44.780;17.194;2024-03-08T04:05:27;45.75;;;19.85;;
34876;SDS011;21086;44.780;17.194;2024-03-08T04:07:54;24.77;;;12.93;;
34876;SDS011;21086;44.780;17.194;2024-03-08T04:10:21;22.95;;;11.77;;
34876;SDS011;21086;44.780;17.194;2024-03-08T04:12:48;18.10;;;11.40;;
34876;SDS011;21086;44.780;17.194;2024-03-08T04:15:15;18.90;;;10.70;;
34876;SDS011;21086;44.780;17.194;2024-03-08T04:17:42;16.50;;;10.07;;
34876;SDS011;21086;44.780;17.194;2024-03-08T04:20:12;23.38;;;12.02;;
34876;SDS011;21086;44.780;17.194;2024-03-08T04:22:41;22.75;;;12.63;;
34876;SDS011;21086;44.780;17.194;2024-03-08T04:25:11;20.60;;;12.68;;
34876;SDS011;21086;44.780;17.194;2024-03-08T04:27:38;25.05;;;12.40;;
34876;SDS011;21086;44.780;17.194;2024-03-08T04:30:06;19.42;;;12.75;;
34876;SDS011;21086;44.780;17.194;2024-03-08T04:32:34;19.60;;;11.98;;
34876;SDS011;21086;44.780;17.194;2024-03-08T04:35:02;16.00;;;10.48;;
34876;SDS011;21086;44.780;17.194;2024-03-08T04:37:30;16.50;;;9.63;;
34876;SDS011;21086;44.780;17.194;2024-03-08T04:39:58;17.77;;;11.07;;
34876;SDS011;21086;44.780;17.194;2024-03-08T04:42:26;14.60;;;9.63;;
34876;SDS011;21086;44.780;17.194;2024-03-08T04:44:56;12.90;;;8.85;;
34876;SDS011;21086;44.780;17.194;2024-03-08T04:47:24;14.00;;;8.98;;
34876;SDS011;21086;44.780;17.194;2024-03-08T04:49:51;13.35;;;8.98;;
34876;SDS011;21086;44.780;17.194;2024-03-08T04:52:19;14.23;;;8.30;;
34876;SDS011;21086;44.780;17.194;2024-03-08T04:54:48;12.50;;;8.25;;
34876;SDS011;21086;44.780;17.194;2024-03-08T04:57:15;14.18;;;9.10;;
34876;SDS011;21086;44.780;17.194;2024-03-08T04:59:45;14.27;;;9.00;;
34876;SDS011;21086;44.780;17.194;2024-03-08T05:02:12;13.23;;;8.90;;
34876;SDS011;21086;44.780;17.194;2024-03-08T05:04:39;14.55;;;8.63;;
34876;SDS011;21086;44.780;17.194;2024-03-08T05:07:06;12.70;;;8.48;;
34876;SDS011;21086;44.780;17.194;2024-03-08T05:09:34;13.27;;;8.25;;
34876;SDS011;21086;44.780;17.194;2024-03-08T05:12:02;14.13;;;9.10;;
34876;SDS011;21086;44.780;17.194;2024-03-08T05:14:30;12.60;;;9.00;;
34876;SDS011;21086;44.780;17.194;2024-03-08T05:16:57;15.77;;;9.05;;
34876;SDS011;21086;44.780;17.194;2024-03-08T05:19:24;14.07;;;9.13;;
34876;SDS011;21086;44.780;17.194;2024-03-08T05:21:51;15.65;;;10.05;;
34876;SDS011;21086;44.780;17.194;2024-03-08T05:24:19;16.20;;;9.70;;
34876;SDS011;21086;44.780;17.194;2024-03-08T05:26:46;19.45;;;10.25;;
34876;SDS011;21086;44.780;17.194;2024-03-08T05:29:14;15.38;;;11.05;;
34876;SDS011;21086;44.780;17.194;2024-03-08T05:31:48;15.13;;;10.35;;
34876;SDS011;21086;44.780;17.194;2024-03-08T05:34:16;16.60;;;10.40;;
34876;SDS011;21086;44.780;17.194;2024-03-08T05:36:46;14.68;;;9.75;;
34876;SDS011;21086;44.780;17.194;2024-03-08T05:39:13;13.80;;;9.82;;
34876;SDS011;21086;44.780;17.194;2024-03-08T05:41:41;18.10;;;10.15;;
34876;SDS011;21086;44.780;17.194;2024-03-08T05:44:08;14.07;;;10.20;;
34876;SDS011;21086;44.780;17.194;2024-03-08T05:46:37;16.33;;;11.43;;
34876;SDS011;21086;44.780;17.194;2024-03-08T05:49:04;20.85;;;12.90;;
34876;SDS011;21086;44.780;17.194;2024-03-08T05:51:32;20.40;;;13.98;;
34876;SDS011;21086;44.780;17.194;2024-03-08T05:54:03;21.67;;;12.75;;
34876;SDS011;21086;44.780;17.194;2024-03-08T05:56:35;19.02;;;12.77;;
34876;SDS011;21086;44.780;17.194;2024-03-08T05:59:03;19.88;;;12.00;;
34876;SDS011;21086;44.780;17.194;2024-03-08T06:01:31;21.05;;;12.52;;
34876;SDS011;21086;44.780;17.194;2024-03-08T06:03:58;20.63;;;13.05;;
34876;SDS011;21086;44.780;17.194;2024-03-08T06:06:25;19.23;;;13.07;;
34876;SDS011;21086;44.780;17.194;2024-03-08T06:08:52;19.20;;;12.82;;
34876;SDS011;21086;44.780;17.194;2024-03-08T06:11:20;20.38;;;13.40;;
34876;SDS011;21086;44.780;17.194;2024-03-08T06:13:47;23.98;;;14.70;;
34876;SDS011;21086;44.780;17.194;2024-03-08T06:16:15;19.35;;;12.52;;
34876;SDS011;21086;44.780;17.194;2024-03-08T06:18:42;21.40;;;13.07;;
34876;SDS011;21086;44.780;17.194;2024-03-08T06:21:10;21.65;;;12.48;;
34876;SDS011;21086;44.780;17.194;2024-03-08T06:23:39;18.02;;;11.73;;
34876;SDS011;21086;44.780;17.194;2024-03-08T06:26:06;21.02;;;12.60;;
34876;SDS011;21086;44.780;17.194;2024-03-08T06:28:34;22.38;;;13.07;;
34876;SDS011;21086;44.780;17.194;2024-03-08T06:31:01;28.17;;;16.73;;
34876;SDS011;21086;44.780;17.194;2024-03-08T06:33:29;28.85;;;17.63;;
34876;SDS011;21086;44.780;17.194;2024-03-08T06:35:59;27.58;;;16.60;;
34876;SDS011;21086;44.780;17.194;2024-03-08T06:38:26;20.20;;;13.88;;
34876;SDS011;21086;44.780;17.194;2024-03-08T06:40:53;15.57;;;10.63;;
34876;SDS011;21086;44.780;17.194;2024-03-08T06:43:24;18.38;;;11.60;;
34876;SDS011;21086;44.780;17.194;2024-03-08T06:45:58;18.52;;;11.25;;
34876;SDS011;21086;44.780;17.194;2024-03-08T06:48:25;17.67;;;9.98;;
34876;SDS011;21086;44.780;17.194;2024-03-08T06:50:53;12.95;;;8.70;;
34876;SDS011;21086;44.780;17.194;2024-03-08T06:53:20;13.18;;;7.80;;
34876;SDS011;21086;44.780;17.194;2024-03-08T06:55:50;18.23;;;12.55;;
34876;SDS011;21086;44.780;17.194;2024-03-08T06:58:17;19.13;;;12.18;;
34876;SDS011;21086;44.780;17.194;2024-03-08T07:00:45;23.70;;;14.05;;
34876;SDS011;21086;44.780;17.194;2024-03-08T07:03:13;13.35;;;9.70;;
34876;SDS011;21086;44.780;17.194;2024-03-08T07:05:43;16.92;;;9.82;;
34876;SDS011;21086;44.780;17.194;2024-03-08T07:08:11;18.25;;;9.88;;
34876;SDS011;21086;44.780;17.194;2024-03-08T07:10:40;21.65;;;13.10;;
34876;SDS011;21086;44.780;17.194;2024-03-08T07:13:11;35.33;;;23.52;;
34876;SDS011;21086;44.780;17.194;2024-03-08T07:15:38;32.85;;;21.67;;
34876;SDS011;21086;44.780;17.194;2024-03-08T07:18:06;24.23;;;15.70;;
34876;SDS011;21086;44.780;17.194;2024-03-08T07:20:35;21.83;;;14.30;;
34876;SDS011;21086;44.780;17.194;2024-03-08T07:23:03;24.08;;;14.65;;
34876;SDS011;21086;44.780;17.194;2024-03-08T07:25:31;20.60;;;12.75;;
34876;SDS011;21086;44.780;17.194;2024-03-08T07:27:58;18.35;;;12.13;;
34876;SDS011;21086;44.780;17.194;2024-03-08T07:30:27;17.08;;;10.73;;
34876;SDS011;21086;44.780;17.194;2024-03-08T07:33:10;17.42;;;9.90;;
34876;SDS011;21086;44.780;17.194;2024-03-08T07:35:41;17.33;;;10.55;;
34876;SDS011;21086;44.780;17.194;2024-03-08T07:38:09;16.92;;;9.57;;
34876;SDS011;21086;44.780;17.194;2024-03-08T07:40:37;15.73;;;9.95;;
34876;SDS011;21086;44.780;17.194;2024-03-08T07:43:07;15.75;;;8.75;;
34876;SDS011;21086;44.780;17.194;2024-03-08T07:45:34;14.45;;;8.88;;
34876;SDS011;21086;44.780;17.194;2024-03-08T07:48:02;15.48;;;9.52;;
34876;SDS011;21086;44.780;17.194;2024-03-08T07:50:30;15.07;;;9.35;;
34876;SDS011;21086;44.780;17.194;2024-03-08T07:52:59;16.58;;;9.32;;
34876;SDS011;21086;44.780;17.194;2024-03-08T07:55:27;18.67;;;9.48;;
34876;SDS011;21086;44.780;17.194;2024-03-08T07:57:55;20.77;;;11.48;;
34876;SDS011;21086;44.780;17.194;2024-03-08T08:00:22;14.40;;;9.10;;
34876;SDS011;21086;44.780;17.194;2024-03-08T08:02:50;15.65;;;8.73;;
34876;SDS011;21086;44.780;17.194;2024-03-08T08:05:17;20.58;;;11.00;;
34876;SDS011;21086;44.780;17.194;2024-03-08T08:07:45;18.95;;;10.40;;
34876;SDS011;21086;44.780;17.194;2024-03-08T08:10:16;16.55;;;9.25;;
34876;SDS011;21086;44.780;17.194;2024-03-08T08:12:48;15.98;;;9.98;;
34876;SDS011;21086;44.780;17.194;2024-03-08T08:15:15;18.58;;;9.80;;
34876;SDS011;21086;44.780;17.194;2024-03-08T08:17:43;19.33;;;9.52;;
34876;SDS011;21086;44.780;17.194;2024-03-08T08:20:11;17.15;;;10.70;;
34876;SDS011;21086;44.780;17.194;2024-03-08T08:22:42;19.10;;;11.20;;
34876;SDS011;21086;44.780;17.194;2024-03-08T08:25:14;19.10;;;10.90;;
34876;SDS011;21086;44.780;17.194;2024-03-08T08:27:42;21.23;;;11.13;;
34876;SDS011;21086;44.780;17.194;2024-03-08T08:30:09;17.25;;;10.00;;
34876;SDS011;21086;44.780;17.194;2024-03-08T08:32:38;20.58;;;10.50;;
34876;SDS011;21086;44.780;17.194;2024-03-08T08:35:13;17.10;;;9.65;;
34876;SDS011;21086;44.780;17.194;2024-03-08T08:37:40;19.00;;;10.23;;
34876;SDS011;21086;44.780;17.194;2024-03-08T08:40:08;16.20;;;10.05;;
34876;SDS011;21086;44.780;17.194;2024-03-08T08:42:37;17.15;;;9.25;;
34876;SDS011;21086;44.780;17.194;2024-03-08T08:45:07;17.98;;;9.45;;
34876;SDS011;21086;44.780;17.194;2024-03-08T08:47:42;17.60;;;10.05;;
34876;SDS011;21086;44.780;17.194;2024-03-08T08:50:12;15.40;;;9.85;;
34876;SDS011;21086;44.780;17.194;2024-03-08T08:52:39;14.75;;;9.30;;
34876;SDS011;21086;44.780;17.194;2024-03-08T08:55:10;15.77;;;8.98;;
34876;SDS011;21086;44.780;17.194;2024-03-08T08:57:41;15.73;;;9.05;;
34876;SDS011;21086;44.780;17.194;2024-03-08T09:00:09;14.10;;;8.27;;
34876;SDS011;21086;44.780;17.194;2024-03-08T09:02:42;11.48;;;7.30;;
34876;SDS011;21086;44.780;17.194;2024-03-08T09:05:09;12.25;;;7.07;;
34876;SDS011;21086;44.780;17.194;2024-03-08T09:07:38;13.95;;;7.85;;
34876;SDS011;21086;44.780;17.194;2024-03-08T09:10:05;16.27;;;9.25;;
34876;SDS011;21086;44.780;17.194;2024-03-08T09:12:39;12.57;;;7.88;;
34876;SDS011;21086;44.780;17.194;2024-03-08T09:15:06;14.82;;;8.25;;
34876;SDS011;21086;44.780;17.194;2024-03-08T09:17:40;13.75;;;7.80;;
34876;SDS011;21086;44.780;17.194;2024-03-08T09:20:08;13.40;;;7.40;;
34876;SDS011;21086;44.780;17.194;2024-03-08T09:22:45;13.80;;;9.40;;
34876;SDS011;21086;44.780;17.194;2024-03-08T09:25:13;16.70;;;9.07;;
34876;SDS011;21086;44.780;17.194;2024-03-08T09:27:40;13.63;;;8.48;;
34876;SDS011;21086;44.780;17.194;2024-03-08T09:30:07;16.50;;;8.20;;
34876;SDS011;21086;44.780;17.194;2024-03-08T09:32:35;12.13;;;7.25;;
34876;SDS011;21086;44.780;17.194;2024-03-08T09:35:04;16.35;;;8.82;;
34876;SDS011;21086;44.780;17.194;2024-03-08T09:37:34;14.25;;;7.93;;
34876;SDS011;21086;44.780;17.194;2024-03-08T09:40:01;15.45;;;8.13;;
34876;SDS011;21086;44.780;17.194;2024-03-08T09:42:36;16.92;;;7.95;;
34876;SDS011;21086;44.780;17.194;2024-03-08T09:45:07;13.85;;;8.20;;
34876;SDS011;21086;44.780;17.194;2024-03-08T09:47:42;12.38;;;8.52;;
34876;SDS011;21086;44.780;17.194;2024-03-08T09:50:10;19.73;;;9.15;;
34876;SDS011;21086;44.780;17.194;2024-03-08T09:52:39;16.88;;;11.93;;
34876;SDS011;21086;44.780;17.194;2024-03-08T09:55:07;15.38;;;10.88;;
34876;SDS011;21086;44.780;17.194;2024-03-08T09:57:36;24.48;;;11.45;;
34876;SDS011;21086;44.780;17.194;2024-03-08T10:00:04;19.90;;;10.93;;
34876;SDS011;21086;44.780;17.194;2024-03-08T10:02:45;17.50;;;9.68;;
34876;SDS011;21086;44.780;17.194;2024-03-08T10:05:12;20.45;;;12.07;;
34876;SDS011;21086;44.780;17.194;2024-03-08T10:07:40;19.83;;;10.65;;
34876;SDS011;21086;44.780;17.194;2024-03-08T10:10:07;11.93;;;8.25;;
34876;SDS011;21086;44.780;17.194;2024-03-08T10:12:35;17.38;;;9.27;;
34876;SDS011;21086;44.780;17.194;2024-03-08T10:15:02;17.17;;;8.70;;
34876;SDS011;21086;44.780;17.194;2024-03-08T10:17:31;18.88;;;9.65;;
34876;SDS011;21086;44.780;17.194;2024-03-08T10:19:59;20.05;;;10.70;;
34876;SDS011;21086;44.780;17.194;2024-03-08T10:22:26;12.82;;;8.13;;
34876;SDS011;21086;44.780;17.194;2024-03-08T10:24:55;13.25;;;8.18;;
34876;SDS011;21086;44.780;17.194;2024-03-08T10:27:23;13.13;;;8.35;;
34876;SDS011;21086;44.780;17.194;2024-03-08T10:29:49;18.02;;;9.32;;
34876;SDS011;21086;44.780;17.194;2024-03-08T10:32:18;16.52;;;9.30;;
34876;SDS011;21086;44.780;17.194;2024-03-08T10:34:45;18.13;;;9.13;;
34876;SDS011;21086;44.780;17.194;2024-03-08T10:37:15;15.20;;;8.20;;
34876;SDS011;21086;44.780;17.194;2024-03-08T10:39:53;15.05;;;8.48;;
34876;SDS011;21086;44.780;17.194;2024-03-08T10:42:40;15.77;;;8.68;;
34876;SDS011;21086;44.780;17.194;2024-03-08T10:45:35;14.15;;;7.47;;
34876;SDS011;21086;44.780;17.194;2024-03-08T10:48:09;15.30;;;8.73;;
34876;SDS011;21086;44.780;17.194;2024-03-08T10:51:05;13.10;;;8.25;;
34876;SDS011;21086;44.780;17.194;2024-03-08T10:53:34;13.95;;;9.02;;
34876;SDS011;21086;44.780;17.194;2024-03-08T10:56:03;35.50;;;19.20;;
34876;SDS011;21086;44.780;17.194;2024-03-08T10:58:31;14.02;;;7.43;;
34876;SDS011;21086;44.780;17.194;2024-03-08T11:01:01;16.23;;;8.30;;
34876;SDS011;21086;44.780;17.194;2024-03-08T11:06:16;11.18;;;7.03;;
34876;SDS011;21086;44.780;17.194;2024-03-08T11:08:55;12.32;;;7.57;;
34876;SDS011;21086;44.780;17.194;2024-03-08T11:14:00;14.23;;;8.15;;
34876;SDS011;21086;44.780;17.194;2024-03-08T11:18:59;13.25;;;7.55;;
34876;SDS011;21086;44.780;17.194;2024-03-08T11:21:37;13.50;;;8.05;;
34876;SDS011;21086;44.780;17.194;2024-03-08T11:24:07;13.55;;;8.18;;
34876;SDS011;21086;44.780;17.194;2024-03-08T11:26:35;16.75;;;8.95;;
34876;SDS011;21086;44.780;17.194;2024-03-08T11:34:54;12.85;;;8.10;;
34876;SDS011;21086;44.780;17.194;2024-03-08T11:37:21;14.40;;;7.63;;
34876;SDS011;21086;44.780;17.194;2024-03-08T11:39:52;12.98;;;8.20;;
34876;SDS011;21086;44.780;17.194;2024-03-08T11:42:25;12.38;;;8.05;;
34876;SDS011;21086;44.780;17.194;2024-03-08T11:44:53;13.95;;;8.40;;
34876;SDS011;21086;44.780;17.194;2024-03-08T11:47:20;14.40;;;7.25;;
34876;SDS011;21086;44.780;17.194;2024-03-08T11:49:48;14.10;;;7.72;;
34876;SDS011;21086;44.780;17.194;2024-03-08T11:52:15;22.95;;;11.85;;
34876;SDS011;21086;44.780;17.194;2024-03-08T11:54:53;15.48;;;8.15;;
34876;SDS011;21086;44.780;17.194;2024-03-08T11:57:24;10.55;;;7.15;;
34876;SDS011;21086;44.780;17.194;2024-03-08T11:59:51;12.43;;;7.60;;
34876;SDS011;21086;44.780;17.194;2024-03-08T12:02:23;14.13;;;7.40;;
34876;SDS011;21086;44.780;17.194;2024-03-08T12:04:59;17.77;;;8.50;;
34876;SDS011;21086;44.780;17.194;2024-03-08T12:07:29;15.75;;;9.32;;
34876;SDS011;21086;44.780;17.194;2024-03-08T12:10:16;13.95;;;7.88;;
34876;SDS011;21086;44.780;17.194;2024-03-08T12:12:52;11.10;;;6.53;;
34876;SDS011;21086;44.780;17.194;2024-03-08T12:15:21;8.65;;;6.05;;
34876;SDS011;21086;44.780;17.194;2024-03-08T12:17:50;10.80;;;7.13;;
34876;SDS011;21086;44.780;17.194;2024-03-08T12:20:19;11.38;;;7.30;;
34876;SDS011;21086;44.780;17.194;2024-03-08T12:22:52;11.95;;;7.80;;
34876;SDS011;21086;44.780;17.194;2024-03-08T12:25:20;11.30;;;7.18;;
34876;SDS011;21086;44.780;17.194;2024-03-08T12:27:47;14.75;;;8.35;;
34876;SDS011;21086;44.780;17.194;2024-03-08T12:30:21;15.77;;;8.95;;
34876;SDS011;21086;44.780;17.194;2024-03-08T12:32:58;11.93;;;8.27;;
34876;SDS011;21086;44.780;17.194;2024-03-08T12:35:34;12.68;;;7.90;;
34876;SDS011;21086;44.780;17.194;2024-03-08T12:38:01;13.07;;;8.65;;
34876;SDS011;21086;44.780;17.194;2024-03-08T12:40:30;16.30;;;9.18;;
34876;SDS011;21086;44.780;17.194;2024-03-08T12:42:59;15.10;;;8.75;;
34876;SDS011;21086;44.780;17.194;2024-03-08T12:45:26;14.13;;;8.88;;
34876;SDS011;21086;44.780;17.194;2024-03-08T12:47:53;18.80;;;8.85;;
34876;SDS011;21086;44.780;17.194;2024-03-08T12:50:22;18.90;;;9.65;;
34876;SDS011;21086;44.780;17.194;2024-03-08T12:52:51;14.07;;;7.93;;
34876;SDS011;21086;44.780;17.194;2024-03-08T12:55:22;17.08;;;10.18;;
34876;SDS011;21086;44.780;17.194;2024-03-08T12:57:49;14.05;;;8.73;;
34876;SDS011;21086;44.780;17.194;2024-03-08T13:00:16;12.32;;;9.00;;
34876;SDS011;21086;44.780;17.194;2024-03-08T13:02:46;17.17;;;9.70;;
34876;SDS011;21086;44.780;17.194;2024-03-08T13:05:14;13.30;;;8.90;;
34876;SDS011;21086;44.780;17.194;2024-03-08T13:07:41;11.48;;;7.45;;
34876;SDS011;21086;44.780;17.194;2024-03-08T13:10:13;14.30;;;8.23;;
34876;SDS011;21086;44.780;17.194;2024-03-08T13:12:43;12.70;;;8.15;;
34876;SDS011;21086;44.780;17.194;2024-03-08T13:15:11;14.18;;;8.50;;
34876;SDS011;21086;44.780;17.194;2024-03-08T13:17:42;15.05;;;8.63;;
34876;SDS011;21086;44.780;17.194;2024-03-08T13:20:11;14.35;;;9.77;;
34876;SDS011;21086;44.780;17.194;2024-03-08T13:22:47;16.85;;;10.88;;
34876;SDS011;21086;44.780;17.194;2024-03-08T13:25:15;17.55;;;9.95;;
34876;SDS011;21086;44.780;17.194;2024-03-08T13:27:42;16.55;;;9.77;;
34876;SDS011;21086;44.780;17.194;2024-03-08T13:30:09;18.55;;;10.35;;
34876;SDS011;21086;44.780;17.194;2024-03-08T13:32:40;14.73;;;8.98;;
34876;SDS011;21086;44.780;17.194;2024-03-08T13:35:12;16.95;;;10.73;;
34876;SDS011;21086;44.780;17.194;2024-03-08T13:37:40;19.88;;;11.00;;
34876;SDS011;21086;44.780;17.194;2024-03-08T13:40:08;19.70;;;12.00;;
34876;SDS011;21086;44.780;17.194;2024-03-08T13:42:37;24.88;;;13.77;;
34876;SDS011;21086;44.780;17.194;2024-03-08T13:45:08;19.50;;;12.48;;
34876;SDS011;21086;44.780;17.194;2024-03-08T13:47:38;20.63;;;11.88;;
34876;SDS011;21086;44.780;17.194;2024-03-08T13:50:07;18.17;;;11.60;;
34876;SDS011;21086;44.780;17.194;2024-03-08T13:52:38;13.10;;;9.35;;
34876;SDS011;21086;44.780;17.194;2024-03-08T13:55:06;12.60;;;8.15;;
34876;SDS011;21086;44.780;17.194;2024-03-08T13:57:34;10.30;;;7.18;;
34876;SDS011;21086;44.780;17.194;2024-03-08T14:00:01;10.45;;;7.88;;
34876;SDS011;21086;44.780;17.194;2024-03-08T14:02:28;13.27;;;8.55;;
34876;SDS011;21086;44.780;17.194;2024-03-08T14:04:57;14.02;;;7.93;;
34876;SDS011;21086;44.780;17.194;2024-03-08T14:07:26;13.13;;;8.52;;
34876;SDS011;21086;44.780;17.194;2024-03-08T14:09:55;13.63;;;9.35;;
34876;SDS011;21086;44.780;17.194;2024-03-08T14:12:22;12.43;;;7.72;;
34876;SDS011;21086;44.780;17.194;2024-03-08T14:14:53;10.98;;;7.45;;
34876;SDS011;21086;44.780;17.194;2024-03-08T14:17:20;11.73;;;7.75;;
34876;SDS011;21086;44.780;17.194;2024-03-08T14:19:47;10.38;;;7.22;;
34876;SDS011;21086;44.780;17.194;2024-03-08T14:22:14;10.90;;;7.20;;
34876;SDS011;21086;44.780;17.194;2024-03-08T14:24:41;10.35;;;6.82;;
34876;SDS011;21086;44.780;17.194;2024-03-08T14:27:08;19.83;;;12.90;;
34876;SDS011;21086;44.780;17.194;2024-03-08T14:29:36;19.67;;;11.82;;
34876;SDS011;21086;44.780;17.194;2024-03-08T14:32:05;15.82;;;9.75;;
34876;SDS011;21086;44.780;17.194;2024-03-08T14:34:36;12.80;;;8.77;;
34876;SDS011;21086;44.780;17.194;2024-03-08T14:37:03;19.35;;;12.65;;
34876;SDS011;21086;44.780;17.194;2024-03-08T14:39:34;14.77;;;10.82;;
34876;SDS011;21086;44.780;17.194;2024-03-08T14:42:01;28.35;;;16.05;;